Time;durP1;ratioP1;P1;durP2;ratioP2;P2;SDS_P1;SDS_P2;PMS_P1;PMS_P2;Temp;Humidity;BMP_temperature;BMP_pressure;BME280_temperature;BME280_humidity;BME280_pressure;Samples;Min_cycle;Max_cycle;Signal;HPM_P1;HPM_P2
2022/01/31 00:00:20;;;;;;;25.33;6.90;;;;;;;2.54;85.58;94616.53;5072020;28;20220;-81
2022/01/31 00:02:49;;;;;;;27.67;8.07;;;;;;;2.52;85.37;94620.25;5069998;28;20290;-78
2022/01/31 00:05:17;;;;;;;26.93;6.50;;;;;;;2.44;85.65;94608.28;5070238;28;20209;-78
2022/01/31 00:07:51;;;;;;;21.43;6.20;;;;;;;2.58;85.40;94614.44;5076490;28;20236;-80
2022/01/31 00:10:27;;;;;;;31.87;6.77;;;;;;;2.53;85.61;94617.53;5072615;28;20206;-79
2022/01/31 00:13:02;;;;;;;27.20;7.37;;;;;;;2.51;85.63;94622.00;5080192;28;20232;-80
2022/01/31 00:15:31;;;;;;;27.27;6.70;;;;;;;2.54;84.86;94626.03;5069314;28;20283;-80
2022/01/31 00:17:58;;;;;;;32.17;6.10;;;;;;;2.56;84.92;94632.56;5073657;28;20282;-80
2022/01/31 00:20:28;;;;;;;26.57;6.23;;;;;;;2.53;85.24;94616.72;5071352;28;20212;-80
2022/01/31 00:22:56;;;;;;;27.10;6.60;;;;;;;2.52;85.31;94639.00;5073437;28;20576;-84
2022/01/31 00:25:24;;;;;;;20.43;5.47;;;;;;;2.58;84.59;94629.81;5080319;28;20684;-84
2022/01/31 00:27:52;;;;;;;26.67;5.83;;;;;;;2.57;84.87;94631.59;5072004;28;20203;-82
2022/01/31 00:30:22;;;;;;;24.73;5.83;;;;;;;2.60;84.71;94621.00;5080506;28;20204;-82
2022/01/31 00:32:49;;;;;;;19.07;5.80;;;;;;;2.59;84.83;94632.22;5071987;28;20209;-82
2022/01/31 00:35:18;;;;;;;19.90;7.33;;;;;;;2.59;85.04;94639.94;5069838;28;20323;-82
2022/01/31 00:37:45;;;;;;;19.80;5.97;;;;;;;2.60;85.19;94638.94;5070988;28;20293;-81
2022/01/31 00:40:14;;;;;;;17.93;5.50;;;;;;;2.64;84.58;94632.50;5071058;28;20201;-82
2022/01/31 00:42:43;;;;;;;18.63;5.33;;;;;;;2.64;84.30;94636.84;5071887;28;20566;-82
2022/01/31 00:45:17;;;;;;;22.70;6.43;;;;;;;2.66;84.19;94642.59;5077136;28;20216;-82
2022/01/31 00:47:50;;;;;;;18.90;5.10;;;;;;;2.69;83.96;94639.69;5071532;28;20209;-82
2022/01/31 00:50:19;;;;;;;15.97;4.97;;;;;;;2.66;84.08;94648.53;5070513;28;20225;-82
2022/01/31 00:52:47;;;;;;;29.40;5.83;;;;;;;2.67;84.44;94647.56;5074630;28;20214;-80
2022/01/31 00:55:16;;;;;;;20.70;5.60;;;;;;;2.69;84.88;94657.66;5070528;28;20220;-80
2022/01/31 00:57:45;;;;;;;18.33;5.60;;;;;;;2.72;84.29;94644.47;5077771;28;20228;-81
2022/01/31 01:00:15;;;;;;;29.07;5.13;;;;;;;2.71;83.92;94650.59;5071592;28;20223;-80
2022/01/31 01:02:44;;;;;;;14.33;5.37;;;;;;;2.70;83.92;94652.34;5065671;28;20679;-79
2022/01/31 01:05:14;;;;;;;22.90;4.30;;;;;;;2.69;83.48;94645.63;5070270;28;20204;-80
2022/01/31 01:07:45;;;;;;;14.30;5.33;;;;;;;2.71;83.38;94640.34;5075690;28;20631;-77
2022/01/31 01:10:15;;;;;;;13.77;4.60;;;;;;;2.71;83.14;94646.25;5073499;28;20216;-77
2022/01/31 01:12:43;;;;;;;20.93;4.30;;;;;;;2.54;83.82;94643.97;5070817;28;20243;-78
2022/01/31 01:15:12;;;;;;;17.40;4.47;;;;;;;2.57;83.66;94648.75;5074002;28;20213;-77
2022/01/31 01:17:40;;;;;;;12.63;3.73;;;;;;;2.54;83.26;94655.00;5064297;28;20249;-77
2022/01/31 01:20:11;;;;;;;8.60;4.13;;;;;;;2.65;82.64;94646.94;5073258;28;20960;-78
2022/01/31 01:22:41;;;;;;;9.77;3.80;;;;;;;2.64;82.42;94650.47;5073745;28;20667;-78
2022/01/31 01:25:11;;;;;;;9.27;4.00;;;;;;;2.46;81.75;94628.59;5077299;28;20216;-77
2022/01/31 01:27:41;;;;;;;25.30;5.47;;;;;;;2.66;82.84;94645.97;5077102;28;20730;-79
2022/01/31 01:30:13;;;;;;;25.43;5.27;;;;;;;2.65;82.98;94643.56;5074761;28;20302;-79
2022/01/31 01:32:49;;;;;;;13.73;4.50;;;;;;;2.64;82.35;94642.78;5072761;28;20286;-79
2022/01/31 01:35:17;;;;;;;15.13;4.73;;;;;;;2.69;83.12;94639.69;5073506;28;20255;-80
2022/01/31 01:37:47;;;;;;;16.97;4.83;;;;;;;2.72;83.36;94647.03;5074048;28;20882;-80
2022/01/31 01:40:14;;;;;;;16.13;4.70;;;;;;;2.69;83.51;94640.50;5068851;28;20212;-80
2022/01/31 01:42:43;;;;;;;24.13;4.67;;;;;;;2.56;83.90;94630.00;5075247;28;20646;-79
2022/01/31 01:45:11;;;;;;;19.67;4.80;;;;;;;2.63;83.64;94637.81;5075781;28;20282;-79
2022/01/31 01:47:39;;;;;;;14.17;3.83;;;;;;;2.59;82.47;94641.69;5073838;28;20208;-80
2022/01/31 01:50:08;;;;;;;20.50;4.50;;;;;;;2.57;81.96;94633.38;5068408;28;20296;-80
2022/01/31 01:52:36;;;;;;;14.87;3.33;;;;;;;2.48;82.85;94627.47;5076089;28;20204;-81
2022/01/31 01:55:07;;;;;;;13.90;4.23;;;;;;;2.49;83.33;94641.91;5071562;28;20213;-82
2022/01/31 01:57:36;;;;;;;18.87;5.27;;;;;;;2.46;83.59;94644.78;5067072;28;20689;-83
2022/01/31 02:00:08;;;;;;;16.47;5.07;;;;;;;2.52;83.25;94635.63;5069779;28;20212;-82
2022/01/31 02:02:37;;;;;;;14.37;4.77;;;;;;;2.58;82.82;94640.88;5074138;28;20197;-84
2022/01/31 02:05:06;;;;;;;19.67;5.03;;;;;;;2.60;82.09;94643.25;5069903;28;20205;-85
2022/01/31 02:07:35;;;;;;;12.40;4.90;;;;;;;2.62;81.39;94636.22;5070817;28;20208;-85
2022/01/31 02:10:07;;;;;;;14.30;4.87;;;;;;;2.66;81.65;94643.41;5071949;28;20291;-85
2022/01/31 02:12:46;;;;;;;13.60;4.70;;;;;;;2.66;81.73;94634.91;5081482;28;20227;-85
2022/01/31 02:15:15;;;;;;;13.00;4.13;;;;;;;2.54;82.11;94638.84;5068726;28;20209;-79
2022/01/31 02:17:43;;;;;;;6.77;3.13;;;;;;;2.42;81.50;94630.72;5074011;28;20809;-79
2022/01/31 02:20:13;;;;;;;11.27;3.30;;;;;;;2.51;80.40;94639.19;5072236;28;20747;-77
2022/01/31 02:22:43;;;;;;;9.13;3.50;;;;;;;2.46;80.44;94633.72;5074070;28;20280;-77
2022/01/31 02:25:12;;;;;;;7.73;3.30;;;;;;;2.46;80.97;94634.53;5076005;28;20221;-77
2022/01/31 02:27:41;;;;;;;11.73;3.83;;;;;;;2.47;80.92;94630.22;5071056;28;20205;-77
2022/01/31 02:30:13;;;;;;;10.93;3.73;;;;;;;2.41;80.99;94626.56;5077916;28;20208;-79
2022/01/31 02:32:42;;;;;;;22.10;4.13;;;;;;;2.43;80.85;94637.44;5070575;28;20205;-80
2022/01/31 02:35:11;;;;;;;14.37;3.87;;;;;;;2.35;81.43;94632.34;5089716;28;20251;-78
2022/01/31 02:37:39;;;;;;;18.67;3.60;;;;;;;2.34;80.80;94640.22;5079388;28;20259;-78
2022/01/31 02:40:10;;;;;;;14.40;3.90;;;;;;;2.35;80.40;94640.06;5068577;28;20237;-78
2022/01/31 02:42:39;;;;;;;10.33;3.10;;;;;;;2.34;80.49;94646.13;5072034;28;20600;-78
2022/01/31 02:45:08;;;;;;;5.13;3.27;;;;;;;2.33;80.89;94652.25;5067465;28;20205;-77
2022/01/31 02:47:40;;;;;;;10.17;3.80;;;;;;;2.34;81.28;94635.09;5071620;28;20214;-78
2022/01/31 02:50:12;;;;;;;11.73;3.47;;;;;;;2.43;80.38;94654.59;5068648;28;20204;-77
2022/01/31 02:52:46;;;;;;;10.97;3.63;;;;;;;2.41;80.09;94659.91;5076166;28;20302;-78
2022/01/31 02:55:18;;;;;;;9.90;3.47;;;;;;;2.41;80.01;94639.38;5066909;28;20209;-78
2022/01/31 02:57:48;;;;;;;11.87;4.63;;;;;;;2.38;80.80;94649.16;5081968;28;20223;-77
2022/01/31 03:00:16;;;;;;;11.53;3.73;;;;;;;2.26;80.94;94643.63;5069701;28;20263;-79
2022/01/31 03:02:45;;;;;;;13.93;3.67;;;;;;;2.25;80.63;94645.38;5076508;28;20289;-77
2022/01/31 03:05:14;;;;;;;14.43;3.17;;;;;;;2.24;80.31;94636.09;5071586;28;20207;-77
2022/01/31 03:07:43;;;;;;;8.30;3.50;;;;;;;2.28;79.96;94647.59;5068926;28;20974;-77
2022/01/31 03:10:13;;;;;;;12.50;3.90;;;;;;;2.20;80.25;94642.53;5069537;28;20266;-78
2022/01/31 03:12:43;;;;;;;14.23;3.40;;;;;;;2.12;79.89;94645.13;5072736;28;20236;-78
2022/01/31 03:15:11;;;;;;;16.30;3.40;;;;;;;2.15;80.44;94644.78;5075589;28;20207;-78
2022/01/31 03:17:46;;;;;;;17.60;4.07;;;;;;;2.17;81.57;94660.00;5072736;28;20212;-78
2022/01/31 03:20:16;;;;;;;20.37;4.60;;;;;;;2.16;81.34;94654.09;5071362;28;20201;-78
2022/01/31 03:22:44;;;;;;;13.27;3.83;;;;;;;2.36;80.87;94658.81;5074871;28;20650;-77
2022/01/31 03:25:12;;;;;;;9.80;4.47;;;;;;;2.34;80.78;94650.50;5077292;28;20205;-78
2022/01/31 03:27:42;;;;;;;13.53;4.20;;;;;;;2.29;80.82;94640.72;5072030;28;20266;-78
2022/01/31 03:30:13;;;;;;;13.13;4.07;;;;;;;2.26;80.89;94636.72;5082066;28;20255;-77
2022/01/31 03:32:41;;;;;;;14.00;3.53;;;;;;;2.15;81.10;94642.22;5074905;28;20880;-77
2022/01/31 03:35:11;;;;;;;11.70;3.40;;;;;;;2.06;81.54;94648.34;5076172;28;20236;-78
2022/01/31 03:37:39;;;;;;;10.23;3.83;;;;;;;2.02;81.94;94631.69;5074508;28;20254;-84
2022/01/31 03:40:08;;;;;;;10.60;3.97;;;;;;;1.97;82.45;94633.97;5072823;28;20208;-84
2022/01/31 03:42:36;;;;;;;16.27;3.97;;;;;;;1.95;82.42;94635.91;5077249;28;20261;-82
2022/01/31 03:45:08;;;;;;;14.10;4.30;;;;;;;1.94;81.59;94631.72;5073409;28;20216;-84
2022/01/31 03:47:44;;;;;;;8.17;3.27;;;;;;;1.82;82.50;94627.16;5073042;28;20671;-83
2022/01/31 03:50:14;;;;;;;10.40;3.73;;;;;;;1.94;82.30;94636.84;5073624;28;20286;-84
2022/01/31 03:52:43;;;;;;;10.10;3.60;;;;;;;1.98;81.78;94633.00;5073711;28;20210;-82
2022/01/31 03:55:13;;;;;;;8.50;3.17;;;;;;;2.06;82.18;94640.66;5072306;28;20274;-81
2022/01/31 03:57:42;;;;;;;6.93;3.03;;;;;;;2.14;81.46;94638.06;5073179;28;20276;-85
2022/01/31 04:00:15;;;;;;;10.00;3.57;;;;;;;2.19;81.42;94629.88;5072679;28;20311;-81
2022/01/31 04:02:44;;;;;;;19.50;4.40;;;;;;;2.20;81.77;94632.28;5067158;28;20201;-76
2022/01/31 04:05:15;;;;;;;14.83;4.63;;;;;;;2.18;81.45;94635.97;5074643;28;20679;-70
2022/01/31 04:07:43;;;;;;;14.67;4.40;;;;;;;2.18;80.73;94638.53;5073836;28;20220;-70
2022/01/31 04:10:13;;;;;;;16.17;5.80;;;;;;;2.16;81.10;94633.59;5076422;28;20776;-71
2022/01/31 04:12:40;;;;;;;19.57;4.27;;;;;;;2.06;81.20;94640.66;5075091;28;20667;-70
2022/01/31 04:15:10;;;;;;;8.67;3.80;;;;;;;2.01;81.18;94644.69;5078177;28;20647;-70
2022/01/31 04:17:39;;;;;;;11.60;3.50;;;;;;;1.87;81.21;94630.00;5076382;28;20212;-70
2022/01/31 04:20:09;;;;;;;8.70;4.10;;;;;;;1.95;81.72;94653.03;5079506;28;20227;-70
2022/01/31 04:22:42;;;;;;;14.07;3.50;;;;;;;1.86;81.54;94638.66;5072158;28;20208;-70
2022/01/31 04:25:27;;;;;;;11.87;3.97;;;;;;;1.90;81.62;94639.94;5079765;28;20284;-71
2022/01/31 04:28:02;;;;;;;9.73;3.53;;;;;;;1.84;82.26;94654.19;5075180;28;20203;-69
2022/01/31 04:30:30;;;;;;;9.13;4.10;;;;;;;1.95;82.46;94658.97;5065142;28;20200;-69
2022/01/31 04:32:59;;;;;;;14.27;4.77;;;;;;;1.88;83.51;94647.75;5077742;28;20264;-70
2022/01/31 04:35:26;;;;;;;10.33;4.10;;;;;;;1.69;83.77;94646.41;5073191;28;20233;-71
2022/01/31 04:37:53;;;;;;;9.40;3.63;;;;;;;1.65;84.82;94637.44;5073221;28;20205;-72
2022/01/31 04:40:21;;;;;;;14.77;4.17;;;;;;;1.61;85.18;94637.94;5073564;28;20227;-72
2022/01/31 04:42:48;;;;;;;15.47;3.30;;;;;;;1.61;85.79;94646.41;5075039;28;20256;-72
2022/01/31 04:45:16;;;;;;;8.80;3.70;;;;;;;1.64;85.43;94646.09;5075210;28;20211;-72
2022/01/31 04:47:43;;;;;;;8.93;3.77;;;;;;;1.58;85.92;94636.50;5074156;28;20200;-72
2022/01/31 04:50:12;;;;;;;16.27;4.10;;;;;;;1.47;86.52;94621.47;5073703;28;20672;-72
2022/01/31 04:52:42;;;;;;;13.00;4.43;;;;;;;1.38;86.88;94626.78;5072589;28;20200;-72
2022/01/31 04:55:11;;;;;;;16.27;6.23;;;;;;;1.34;87.18;94618.63;5073537;28;20725;-72
2022/01/31 04:57:39;;;;;;;16.47;6.87;;;;;;;1.42;86.71;94613.47;5074796;28;20210;-73
2022/01/31 05:00:10;;;;;;;16.43;6.83;;;;;;;1.52;86.32;94616.66;5075470;28;20231;-72
2022/01/31 05:02:37;;;;;;;12.23;6.00;;;;;;;1.53;85.85;94623.38;5077056;28;20204;-73
2022/01/31 05:05:06;;;;;;;18.80;6.40;;;;;;;1.50;86.30;94623.69;5073643;28;20572;-72
2022/01/31 05:07:36;;;;;;;16.57;5.83;;;;;;;1.49;86.51;94622.13;5074913;28;20205;-73
2022/01/31 05:10:04;;;;;;;17.27;6.70;;;;;;;1.43;86.68;94638.13;5074152;28;20213;-73
2022/01/31 05:12:32;;;;;;;13.93;5.27;;;;;;;1.45;86.58;94614.91;5074191;28;20209;-73
2022/01/31 05:14:59;;;;;;;15.53;5.57;;;;;;;1.45;86.83;94615.72;5069369;28;20297;-73
2022/01/31 05:17:28;;;;;;;12.43;5.90;;;;;;;1.45;87.12;94618.28;5071149;28;20212;-72
2022/01/31 05:19:56;;;;;;;15.47;6.50;;;;;;;1.43;87.11;94612.53;5068056;28;20241;-72
2022/01/31 05:22:24;;;;;;;12.70;6.50;;;;;;;1.43;87.28;94620.22;5068184;28;20204;-75
2022/01/31 05:24:54;;;;;;;25.13;7.03;;;;;;;1.35;86.93;94624.53;5072929;28;20201;-72
2022/01/31 05:27:22;;;;;;;21.13;6.53;;;;;;;1.29;87.52;94627.75;5069466;28;20213;-72
2022/01/31 05:29:51;;;;;;;13.93;5.57;;;;;;;1.33;86.87;94621.34;5072766;28;20204;-74
2022/01/31 05:32:18;;;;;;;12.77;5.73;;;;;;;1.30;87.58;94629.34;5073721;28;20686;-73
2022/01/31 05:34:46;;;;;;;14.23;5.50;;;;;;;1.31;87.16;94634.28;5073931;28;20251;-74
2022/01/31 05:37:13;;;;;;;12.00;5.63;;;;;;;1.26;87.48;94625.50;5075618;28;20206;-73
2022/01/31 05:39:43;;;;;;;13.87;5.10;;;;;;;1.19;87.43;94624.53;5072973;28;20696;-73
2022/01/31 05:42:12;;;;;;;12.60;5.80;;;;;;;1.24;87.01;94630.00;5075176;28;20201;-73
2022/01/31 05:44:39;;;;;;;20.50;6.00;;;;;;;1.28;87.28;94637.19;5075464;28;20206;-73
2022/01/31 05:47:08;;;;;;;17.47;7.50;;;;;;;1.31;87.59;94634.28;5074825;28;20600;-73
2022/01/31 05:49:35;;;;;;;15.80;7.00;;;;;;;1.37;86.97;94636.22;5070347;28;20729;-74
2022/01/31 05:52:07;;;;;;;19.87;7.43;;;;;;;1.37;87.13;94654.13;5069707;28;20216;-73
2022/01/31 05:54:35;;;;;;;18.13;7.03;;;;;;;1.39;86.50;94651.41;5074675;28;20293;-74
2022/01/31 05:57:05;;;;;;;16.40;7.03;;;;;;;1.36;86.29;94646.59;5074327;28;20627;-74
2022/01/31 05:59:34;;;;;;;21.60;7.27;;;;;;;1.47;85.62;94634.25;5074879;28;20320;-73
2022/01/31 06:02:03;;;;;;;12.97;6.13;;;;;;;1.50;85.84;94625.47;5071633;28;20307;-74
2022/01/31 06:04:31;;;;;;;16.87;7.43;;;;;;;1.44;85.99;94628.69;5073685;28;20202;-73
2022/01/31 06:06:59;;;;;;;20.07;7.33;;;;;;;1.46;85.20;94619.06;5071182;28;20280;-72
2022/01/31 06:09:28;;;;;;;20.60;6.60;;;;;;;1.46;85.18;94626.75;5073141;28;20675;-73
2022/01/31 06:11:56;;;;;;;14.77;6.40;;;;;;;1.43;85.08;94617.66;5072527;28;20281;-75
2022/01/31 06:14:24;;;;;;;14.77;5.47;;;;;;;1.34;85.33;94618.63;5069378;28;20201;-75
2022/01/31 06:16:55;;;;;;;15.27;5.57;;;;;;;1.31;85.21;94623.25;5070697;28;20280;-74
2022/01/31 06:19:22;;;;;;;16.80;5.77;;;;;;;1.34;84.69;94626.28;5074849;28;20214;-74
2022/01/31 06:21:49;;;;;;;19.03;6.70;;;;;;;1.37;84.99;94633.66;5069144;28;20202;-73
2022/01/31 06:24:18;;;;;;;22.77;8.13;;;;;;;1.38;84.99;94635.25;5071876;28;20206;-73
2022/01/31 06:26:46;;;;;;;22.37;8.80;;;;;;;1.48;84.71;94637.63;5073324;28;20209;-73
2022/01/31 06:29:13;;;;;;;23.83;8.40;;;;;;;1.49;84.03;94627.25;5074276;28;20315;-76
2022/01/31 06:31:41;;;;;;;22.80;9.10;;;;;;;1.58;83.10;94638.25;5074573;28;20234;-75
2022/01/31 06:34:12;;;;;;;24.43;8.73;;;;;;;1.66;82.48;94638.22;5071307;28;20776;-76
2022/01/31 06:36:40;;;;;;;23.73;9.50;;;;;;;1.71;82.38;94644.47;5068440;28;20222;-76
2022/01/31 06:39:09;;;;;;;17.73;6.93;;;;;;;1.73;81.33;94646.88;5073683;28;20226;-76
2022/01/31 06:41:36;;;;;;;19.60;7.57;;;;;;;1.70;81.55;94640.28;5073477;28;20204;-76
2022/01/31 06:44:04;;;;;;;16.87;7.50;;;;;;;1.73;81.52;94636.63;5074008;28;20210;-76
2022/01/31 06:46:32;;;;;;;18.67;8.90;;;;;;;1.75;81.14;94633.88;5071945;28;20209;-76
2022/01/31 06:49:00;;;;;;;20.20;8.60;;;;;;;1.73;80.97;94625.56;5073342;28;20254;-76
2022/01/31 06:51:30;;;;;;;17.77;7.27;;;;;;;1.79;80.96;94610.31;5070480;28;20220;-76
2022/01/31 06:54:00;;;;;;;17.23;7.87;;;;;;;1.85;81.00;94619.91;5071080;28;20727;-77
2022/01/31 06:56:30;;;;;;;25.07;9.63;;;;;;;1.88;81.67;94613.66;5075297;28;20292;-78
2022/01/31 06:58:59;;;;;;;17.10;7.50;;;;;;;1.86;81.09;94613.03;5071901;28;20221;-78
2022/01/31 07:01:28;;;;;;;15.67;5.20;;;;;;;1.81;80.39;94576.88;5072018;28;20201;-77
2022/01/31 07:03:57;;;;;;;15.37;6.67;;;;;;;1.91;79.84;94585.94;5070276;28;20192;-77
2022/01/31 07:06:26;;;;;;;20.50;7.23;;;;;;;1.95;79.44;94586.44;5072991;28;20229;-77
2022/01/31 07:08:56;;;;;;;18.33;7.10;;;;;;;1.95;79.50;94581.31;5074897;28;20207;-76
2022/01/31 07:11:28;;;;;;;12.00;4.73;;;;;;;1.96;79.06;94588.84;5071882;28;20216;-76
2022/01/31 07:14:05;;;;;;;15.77;6.07;;;;;;;2.02;79.03;94589.94;5071331;28;20199;-77
2022/01/31 07:16:34;;;;;;;17.60;8.00;;;;;;;2.10;79.10;94593.25;5072884;28;21467;-76
2022/01/31 07:19:07;;;;;;;16.97;7.90;;;;;;;2.06;79.11;94591.16;5072418;28;20205;-77
2022/01/31 07:21:39;;;;;;;14.23;5.63;;;;;;;2.06;77.16;94614.22;5066683;28;20199;-76
2022/01/31 07:24:22;;;;;;;15.13;5.17;;;;;;;2.05;76.68;94608.31;5071248;28;20878;-77
2022/01/31 07:26:50;;;;;;;20.07;7.20;;;;;;;2.12;77.12;94604.13;5073189;28;20198;-76
2022/01/31 07:29:20;;;;;;;20.13;6.57;;;;;;;2.17;76.95;94593.34;5070504;28;20207;-77
2022/01/31 07:31:48;;;;;;;17.60;7.27;;;;;;;2.21;76.08;94590.31;5070609;28;20211;-76
2022/01/31 07:34:17;;;;;;;20.93;6.13;;;;;;;2.21;75.94;94576.69;5068889;28;20235;-77
2022/01/31 07:36:46;;;;;;;15.73;7.00;;;;;;;2.20;76.26;94563.06;5069800;28;20201;-77
2022/01/31 07:39:15;;;;;;;16.03;5.73;;;;;;;2.20;75.78;94575.06;5070789;28;20220;-77
2022/01/31 07:41:43;;;;;;;15.97;6.07;;;;;;;2.28;75.46;94572.47;5069887;28;20257;-76
2022/01/31 07:44:11;;;;;;;15.13;5.27;;;;;;;2.32;74.91;94571.16;5066343;28;20631;-77
2022/01/31 07:46:40;;;;;;;20.60;6.67;;;;;;;2.28;75.36;94569.91;5068069;28;20200;-77
2022/01/31 07:49:08;;;;;;;17.13;6.03;;;;;;;2.24;75.53;94553.28;5070334;28;20275;-77
2022/01/31 07:51:39;;;;;;;13.43;5.73;;;;;;;2.18;76.13;94561.63;5070001;28;20205;-78
2022/01/31 07:54:08;;;;;;;18.50;8.10;;;;;;;2.31;76.12;94564.44;5069258;28;20214;-81
2022/01/31 07:56:37;;;;;;;23.73;7.17;;;;;;;2.28;76.16;94560.44;5068778;28;20197;-80
2022/01/31 07:59:05;;;;;;;17.80;7.13;;;;;;;2.32;76.40;94565.25;5066067;28;20558;-77
2022/01/31 08:01:32;;;;;;;19.70;7.40;;;;;;;2.33;74.62;94559.97;5069532;28;20213;-77
2022/01/31 08:04:00;;;;;;;16.43;6.73;;;;;;;2.54;73.70;94564.47;5073957;28;20204;-78
2022/01/31 08:06:27;;;;;;;21.17;5.47;;;;;;;2.60;73.56;94567.13;5073393;28;20653;-79
2022/01/31 08:08:56;;;;;;;19.27;7.03;;;;;;;2.68;73.72;94574.78;5072350;28;20703;-84
2022/01/31 08:11:25;;;;;;;15.10;6.43;;;;;;;2.67;73.82;94567.25;5071199;28;20200;-84
2022/01/31 08:13:59;;;;;;;19.77;8.30;;;;;;;2.73;74.19;94557.09;5074467;28;20196;-78
2022/01/31 08:16:27;;;;;;;18.97;8.00;;;;;;;2.80;74.01;94560.56;5070220;28;20189;-78
2022/01/31 08:18:55;;;;;;;20.50;8.23;;;;;;;2.80;72.97;94544.38;5071922;28;20193;-76
2022/01/31 08:21:23;;;;;;;22.73;7.37;;;;;;;2.76;71.94;94546.50;5069923;28;20321;-78
2022/01/31 08:23:51;;;;;;;15.30;5.40;;;;;;;2.74;71.83;94557.91;5072051;28;20208;-76
2022/01/31 08:26:19;;;;;;;16.60;6.57;;;;;;;2.71;71.53;94542.84;5073013;28;20578;-79
2022/01/31 08:28:53;;;;;;;14.33;7.03;;;;;;;2.71;72.23;94540.28;5074265;28;20676;-77
2022/01/31 08:31:24;;;;;;;11.23;4.57;;;;;;;2.73;70.15;94549.41;5068565;28;20196;-79
2022/01/31 08:34:06;;;;;;;17.43;6.73;;;;;;;2.68;71.43;94541.44;5070155;28;20228;-78
2022/01/31 08:36:35;;;;;;;21.47;7.20;;;;;;;2.71;71.52;94550.56;5071213;28;20204;-76
2022/01/31 08:39:08;;;;;;;13.37;5.47;;;;;;;2.73;70.57;94534.00;5074509;28;20274;-76
2022/01/31 08:41:37;;;;;;;18.23;7.23;;;;;;;2.72;70.70;94558.06;5071188;28;20182;-75
2022/01/31 08:44:05;;;;;;;18.30;7.10;;;;;;;2.74;71.33;94561.25;5071425;28;20609;-75
2022/01/31 08:46:35;;;;;;;13.53;6.60;;;;;;;2.76;71.72;94556.75;5071977;28;20925;-75
2022/01/31 08:49:02;;;;;;;14.80;6.50;;;;;;;2.78;71.54;94546.31;5070104;28;20221;-75
2022/01/31 08:51:30;;;;;;;22.10;7.23;;;;;;;2.71;71.90;94542.84;5065748;28;20194;-75
2022/01/31 08:53:58;;;;;;;18.87;5.10;;;;;;;2.62;71.95;94539.56;5064449;28;20193;-75
2022/01/31 08:56:26;;;;;;;19.17;5.83;;;;;;;2.62;72.15;94543.88;5067795;28;20724;-76
2022/01/31 08:58:56;;;;;;;10.73;4.87;;;;;;;2.64;72.08;94544.50;5067719;28;20194;-76
2022/01/31 09:01:24;;;;;;;12.73;5.03;;;;;;;2.61;72.32;94537.16;5066376;28;20217;-75
2022/01/31 09:04:04;;;;;;;12.60;4.10;;;;;;;2.64;72.84;94540.19;5066052;28;20201;-76
2022/01/31 09:06:34;;;;;;;15.47;6.67;;;;;;;2.77;73.18;94524.22;5065039;28;20205;-75
2022/01/31 09:09:05;;;;;;;22.03;8.50;;;;;;;2.84;73.28;94528.47;5067098;28;20200;-75
2022/01/31 09:11:33;;;;;;;19.00;9.50;;;;;;;3.01;72.39;94512.91;5064430;28;20224;-76
2022/01/31 09:14:02;;;;;;;17.83;6.27;;;;;;;3.09;70.06;94521.31;5069394;28;20200;-77
2022/01/31 09:16:32;;;;;;;15.80;5.00;;;;;;;2.89;70.67;94506.63;5068479;28;20208;-79
2022/01/31 09:19:02;;;;;;;12.90;3.70;;;;;;;2.89;68.91;94514.31;5072694;28;20200;-84
2022/01/31 09:21:31;;;;;;;18.67;5.03;;;;;;;2.99;69.29;94510.53;5068390;28;20225;-75
2022/01/31 09:23:59;;;;;;;14.53;5.40;;;;;;;3.17;69.38;94505.06;5066839;28;20287;-75
2022/01/31 09:26:27;;;;;;;11.07;5.20;;;;;;;3.16;69.31;94498.31;5066622;28;20216;-75
2022/01/31 09:28:55;;;;;;;10.27;4.60;;;;;;;3.24;69.82;94493.91;5066389;28;20286;-74
2022/01/31 09:31:24;;;;;;;10.47;4.37;;;;;;;3.37;69.14;94488.94;5068849;28;20201;-75
2022/01/31 09:33:53;;;;;;;12.83;5.07;;;;;;;3.39;68.32;94481.06;5064752;28;20201;-75
2022/01/31 09:36:23;;;;;;;14.27;5.40;;;;;;;3.52;68.07;94483.00;5063972;28;20204;-75
2022/01/31 09:38:51;;;;;;;11.33;4.50;;;;;;;3.67;68.00;94491.47;5064796;28;20294;-75
2022/01/31 09:41:23;;;;;;;11.97;4.30;;;;;;;3.75;66.91;94481.88;5064024;28;20221;-75
2022/01/31 09:44:05;;;;;;;11.50;4.27;;;;;;;3.94;65.99;94465.09;5068362;28;20201;-78
2022/01/31 09:49:23;;;;;;;17.13;6.00;;;;;;;5.12;62.86;94451.44;5068724;28;20198;-77
2022/01/31 09:51:51;;;;;;;18.03;6.93;;;;;;;6.32;60.96;94440.59;5067311;28;20201;-76
2022/01/31 09:54:19;;;;;;;21.87;6.17;;;;;;;7.26;56.61;94432.38;5073136;28;20198;-75
2022/01/31 09:56:47;;;;;;;14.17;5.80;;;;;;;7.74;52.75;94434.56;5070715;28;20195;-75
2022/01/31 09:59:16;;;;;;;18.63;6.43;;;;;;;7.23;51.75;94444.91;5073935;28;20208;-76
2022/01/31 10:01:46;;;;;;;10.93;3.97;;;;;;;6.35;51.78;94422.91;5075780;28;20226;-74
2022/01/31 10:04:17;;;;;;;12.10;4.10;;;;;;;5.77;54.50;94437.25;5073508;28;20202;-76
2022/01/31 10:06:48;;;;;;;12.40;4.73;;;;;;;5.42;53.61;94415.13;5073328;28;20197;-74
2022/01/31 10:09:18;;;;;;;18.67;5.70;;;;;;;5.66;53.82;94405.09;5073893;28;20203;-75
2022/01/31 10:11:49;;;;;;;18.43;6.83;;;;;;;5.80;53.58;94387.84;5073599;28;20318;-75
2022/01/31 10:17:10;;;;;;;15.07;5.40;;;;;;;5.56;55.13;94367.78;5073109;28;20260;-76
2022/01/31 10:19:46;;;;;;;12.53;4.77;;;;;;;5.51;53.81;94370.16;5072990;28;20235;-74
2022/01/31 10:22:15;;;;;;;10.30;5.43;;;;;;;5.78;53.01;94353.75;5067579;28;20802;-75
2022/01/31 10:24:47;;;;;;;17.27;6.57;;;;;;;6.48;53.15;94357.59;5079144;28;20206;-75
2022/01/31 10:27:17;;;;;;;17.50;6.30;;;;;;;7.90;49.92;94353.91;5089789;28;20657;-75
2022/01/31 10:29:46;;;;;;;10.97;4.60;;;;;;;9.08;46.70;94351.16;5087948;28;20258;-74
2022/01/31 10:32:17;;;;;;;12.50;5.10;;;;;;;9.86;44.82;94353.00;5088852;28;20212;-75
2022/01/31 10:34:51;;;;;;;11.67;5.40;;;;;;;9.76;43.23;94342.34;5088395;28;20264;-74
2022/01/31 10:37:22;;;;;;;12.07;5.30;;;;;;;9.68;42.79;94320.88;5088547;28;20208;-75
2022/01/31 10:45:46;;;;;;;11.80;5.07;;;;;;;11.65;38.30;94293.28;5083574;28;20705;-74
2022/01/31 10:54:38;;;;;;;15.93;5.63;;;;;;;10.14;37.96;94278.72;5081544;28;20202;-75
2022/01/31 10:57:15;;;;;;;12.40;5.67;;;;;;;10.48;39.08;94273.75;5082030;28;20674;-76
2022/01/31 10:59:45;;;;;;;15.50;6.30;;;;;;;10.27;39.20;94266.53;5087917;28;20703;-75
2022/01/31 11:02:18;;;;;;;11.40;5.33;;;;;;;10.93;38.09;94266.16;5082074;28;20224;-75
2022/01/31 11:04:46;;;;;;;10.47;4.13;;;;;;;11.58;35.94;94262.19;5082638;28;20199;-79
2022/01/31 11:07:17;;;;;;;11.33;4.77;;;;;;;12.01;34.89;94268.66;5074936;28;20695;-75
2022/01/31 11:09:48;;;;;;;8.93;4.10;;;;;;;12.04;34.59;94247.38;5069706;28;20215;-76
2022/01/31 11:12:19;;;;;;;10.50;4.30;;;;;;;12.08;34.14;94251.09;5074449;28;20208;-75
2022/01/31 11:14:47;;;;;;;18.43;6.57;;;;;;;12.50;34.20;94257.44;5067178;28;20254;-75
2022/01/31 11:17:16;;;;;;;14.33;4.90;;;;;;;12.71;32.73;94261.13;5072366;28;20197;-77
2022/01/31 11:19:47;;;;;;;8.77;4.13;;;;;;;12.58;32.50;94266.69;5068838;28;20200;-77
2022/01/31 11:22:16;;;;;;;12.50;5.57;;;;;;;12.68;32.81;94261.59;5077991;28;20217;-76
2022/01/31 11:24:46;;;;;;;14.97;5.27;;;;;;;12.11;33.73;94258.44;5071451;28;20258;-77
2022/01/31 11:27:18;;;;;;;8.10;3.60;;;;;;;12.09;33.20;94256.03;5069914;28;20211;-76
2022/01/31 11:29:47;;;;;;;17.60;5.83;;;;;;;12.55;33.09;94246.31;5087595;28;20258;-76
2022/01/31 11:32:16;;;;;;;11.23;3.83;;;;;;;12.59;31.76;94242.19;5080083;28;20200;-75
2022/01/31 11:34:46;;;;;;;12.43;3.97;;;;;;;12.63;31.64;94222.44;5087070;28;20290;-76
2022/01/31 11:37:16;;;;;;;12.63;4.83;;;;;;;13.15;31.39;94222.84;5088437;28;20202;-75
2022/01/31 11:39:46;;;;;;;9.57;3.03;;;;;;;13.14;30.91;94226.47;5087918;28;20272;-75
2022/01/31 11:42:17;;;;;;;11.20;5.07;;;;;;;13.41;31.20;94225.50;5077895;28;20238;-76
2022/01/31 11:44:54;;;;;;;6.87;2.90;;;;;;;12.59;31.27;94200.47;5079609;28;20202;-76
2022/01/31 11:47:24;;;;;;;11.80;5.40;;;;;;;12.39;32.32;94201.00;5078003;28;20198;-78
2022/01/31 11:49:54;;;;;;;11.77;4.90;;;;;;;12.38;31.87;94189.03;5084583;28;20209;-77
2022/01/31 11:52:25;;;;;;;8.27;3.60;;;;;;;12.09;31.91;94196.13;5093071;28;20258;-78
2022/01/31 11:54:54;;;;;;;10.53;4.70;;;;;;;11.77;32.24;94202.94;5092646;28;20287;-76
2022/01/31 11:57:24;;;;;;;9.43;4.40;;;;;;;11.39;32.57;94167.94;5092701;28;20232;-75
2022/01/31 11:59:55;;;;;;;12.63;5.53;;;;;;;11.25;33.33;94163.28;5078652;28;20214;-76
2022/01/31 12:02:24;;;;;;;14.27;6.20;;;;;;;10.92;34.53;94163.97;5072728;28;20243;-76